sensor_id;sensor_type;location;lat;lon;timestamp;temperature;humidity
7576;DHT22;3829;50.798;4.358;2022-11-20T00:00:48;5.50;99.90
7576;DHT22;3829;50.798;4.358;2022-11-20T00:03:14;5.60;99.90
7576;DHT22;3829;50.798;4.358;2022-11-20T00:05:40;5.50;99.90
7576;DHT22;3829;50.798;4.358;2022-11-20T00:08:06;5.50;99.90
7576;DHT22;3829;50.798;4.358;2022-11-20T00:10:31;5.70;99.90
7576;DHT22;3829;50.798;4.358;2022-11-20T00:13:00;5.80;99.90
7576;DHT22;3829;50.798;4.358;2022-11-20T00:15:26;5.70;99.90
7576;DHT22;3829;50.798;4.358;2022-11-20T00:17:51;5.80;99.90
7576;DHT22;3829;50.798;4.358;2022-11-20T00:20:17;5.80;99.90
7576;DHT22;3829;50.798;4.358;2022-11-20T00:22:42;5.60;99.90
7576;DHT22;3829;50.798;4.358;2022-11-20T00:25:08;5.50;99.90
7576;DHT22;3829;50.798;4.358;2022-11-20T00:27:34;5.40;99.90
7576;DHT22;3829;50.798;4.358;2022-11-20T00:29:59;5.40;99.90
7576;DHT22;3829;50.798;4.358;2022-11-20T00:32:25;5.50;99.90
7576;DHT22;3829;50.798;4.358;2022-11-20T00:34:50;5.40;99.90
7576;DHT22;3829;50.798;4.358;2022-11-20T00:37:16;5.40;99.90
7576;DHT22;3829;50.798;4.358;2022-11-20T00:39:42;5.50;99.90
7576;DHT22;3829;50.798;4.358;2022-11-20T00:42:07;5.50;99.90
7576;DHT22;3829;50.798;4.358;2022-11-20T00:44:33;5.50;99.90
7576;DHT22;3829;50.798;4.358;2022-11-20T00:46:58;5.60;99.90
7576;DHT22;3829;50.798;4.358;2022-11-20T00:49:24;5.60;99.90
7576;DHT22;3829;50.798;4.358;2022-11-20T00:51:49;5.60;99.90
7576;DHT22;3829;50.798;4.358;2022-11-20T00:54:15;5.70;99.90
7576;DHT22;3829;50.798;4.358;2022-11-20T00:56:41;5.60;99.90
7576;DHT22;3829;50.798;4.358;2022-11-20T00:59:09;5.80;99.90
7576;DHT22;3829;50.798;4.358;2022-11-20T01:01:36;5.60;99.90
7576;DHT22;3829;50.798;4.358;2022-11-20T01:04:02;5.40;99.90
7576;DHT22;3829;50.798;4.358;2022-11-20T01:06:36;5.30;99.90
7576;DHT22;3829;50.798;4.358;2022-11-20T01:09:10;5.30;99.90
7576;DHT22;3829;50.798;4.358;2022-11-20T01:11:39;5.30;99.90
7576;DHT22;3829;50.798;4.358;2022-11-20T01:14:08;5.20;99.90
7576;DHT22;3829;50.798;4.358;2022-11-20T01:16:37;5.30;99.90
7576;DHT22;3829;50.798;4.358;2022-11-20T01:19:05;5.40;99.90
7576;DHT22;3829;50.798;4.358;2022-11-20T01:21:33;5.40;99.90
7576;DHT22;3829;50.798;4.358;2022-11-20T01:23:59;5.40;99.90
7576;DHT22;3829;50.798;4.358;2022-11-20T01:26:30;5.40;99.90
7576;DHT22;3829;50.798;4.358;2022-11-20T01:28:57;5.40;99.90
7576;DHT22;3829;50.798;4.358;2022-11-20T01:31:28;5.40;99.90
7576;DHT22;3829;50.798;4.358;2022-11-20T01:33:56;5.30;99.90
7576;DHT22;3829;50.798;4.358;2022-11-20T01:36:24;5.30;99.90
7576;DHT22;3829;50.798;4.358;2022-11-20T01:38:58;5.30;99.90
7576;DHT22;3829;50.798;4.358;2022-11-20T01:41:25;5.30;99.90
7576;DHT22;3829;50.798;4.358;2022-11-20T01:44:11;5.30;99.90
7576;DHT22;3829;50.798;4.358;2022-11-20T01:46:39;5.40;99.90
7576;DHT22;3829;50.798;4.358;2022-11-20T01:49:15;5.40;99.90
7576;DHT22;3829;50.798;4.358;2022-11-20T01:51:54;5.40;99.90
7576;DHT22;3829;50.798;4.358;2022-11-20T01:54:37;5.40;99.90
7576;DHT22;3829;50.798;4.358;2022-11-20T01:57:06;5.30;99.90
7576;DHT22;3829;50.798;4.358;2022-11-20T01:59:39;5.20;99.90
7576;DHT22;3829;50.798;4.358;2022-11-20T02:02:07;5.10;99.90
7576;DHT22;3829;50.798;4.358;2022-11-20T02:04:32;5.10;99.90
7576;DHT22;3829;50.798;4.358;2022-11-20T02:07:00;4.90;99.90
7576;DHT22;3829;50.798;4.358;2022-11-20T02:09:27;4.90;99.90
7576;DHT22;3829;50.798;4.358;2022-11-20T02:11:53;4.90;99.90
7576;DHT22;3829;50.798;4.358;2022-11-20T02:14:19;5.00;99.90
7576;DHT22;3829;50.798;4.358;2022-11-20T02:16:48;5.00;99.90
7576;DHT22;3829;50.798;4.358;2022-11-20T02:19:23;5.10;99.90
7576;DHT22;3829;50.798;4.358;2022-11-20T02:24:22;5.20;99.90
7576;DHT22;3829;50.798;4.358;2022-11-20T02:26:56;5.20;99.90
7576;DHT22;3829;50.798;4.358;2022-11-20T02:29:48;5.20;99.90
7576;DHT22;3829;50.798;4.358;2022-11-20T02:32:28;5.30;99.90
7576;DHT22;3829;50.798;4.358;2022-11-20T02:34:54;5.20;99.90
7576;DHT22;3829;50.798;4.358;2022-11-20T02:37:21;5.20;99.90
7576;DHT22;3829;50.798;4.358;2022-11-20T02:39:49;4.90;99.90
7576;DHT22;3829;50.798;4.358;2022-11-20T02:42:15;4.80;99.90
7576;DHT22;3829;50.798;4.358;2022-11-20T02:44:41;5.00;99.90
7576;DHT22;3829;50.798;4.358;2022-11-20T02:47:07;5.00;99.90
7576;DHT22;3829;50.798;4.358;2022-11-20T02:49:32;4.90;99.90
7576;DHT22;3829;50.798;4.358;2022-11-20T02:51:58;5.00;99.90
7576;DHT22;3829;50.798;4.358;2022-11-20T02:54:25;5.10;99.90
7576;DHT22;3829;50.798;4.358;2022-11-20T02:56:51;5.10;99.90
7576;DHT22;3829;50.798;4.358;2022-11-20T02:59:17;5.10;99.90
7576;DHT22;3829;50.798;4.358;2022-11-20T03:01:42;5.10;99.90
7576;DHT22;3829;50.798;4.358;2022-11-20T03:04:08;5.10;99.90
7576;DHT22;3829;50.798;4.358;2022-11-20T03:06:33;5.20;99.90
7576;DHT22;3829;50.798;4.358;2022-11-20T03:08:59;5.20;99.90
7576;DHT22;3829;50.798;4.358;2022-11-20T03:11:25;5.20;99.90
7576;DHT22;3829;50.798;4.358;2022-11-20T03:13:50;5.10;99.90
7576;DHT22;3829;50.798;4.358;2022-11-20T03:16:21;5.00;99.90
7576;DHT22;3829;50.798;4.358;2022-11-20T03:18:47;5.00;99.90
7576;DHT22;3829;50.798;4.358;2022-11-20T03:21:13;5.00;99.90
7576;DHT22;3829;50.798;4.358;2022-11-20T03:23:39;5.00;99.90
7576;DHT22;3829;50.798;4.358;2022-11-20T03:26:17;5.00;99.90
7576;DHT22;3829;50.798;4.358;2022-11-20T03:28:55;5.00;99.90
7576;DHT22;3829;50.798;4.358;2022-11-20T03:31:26;5.00;99.90
7576;DHT22;3829;50.798;4.358;2022-11-20T03:33:52;5.10;99.90
7576;DHT22;3829;50.798;4.358;2022-11-20T03:36:19;5.00;99.90
7576;DHT22;3829;50.798;4.358;2022-11-20T03:38:46;5.00;99.90
7576;DHT22;3829;50.798;4.358;2022-11-20T03:41:24;5.00;99.90
7576;DHT22;3829;50.798;4.358;2022-11-20T03:43:55;5.10;99.90
7576;DHT22;3829;50.798;4.358;2022-11-20T03:46:21;5.10;99.90
7576;DHT22;3829;50.798;4.358;2022-11-20T03:48:47;5.10;99.90
7576;DHT22;3829;50.798;4.358;2022-11-20T03:51:15;5.10;99.90
7576;DHT22;3829;50.798;4.358;2022-11-20T03:53:43;5.10;99.90
7576;DHT22;3829;50.798;4.358;2022-11-20T03:56:10;5.10;99.90
7576;DHT22;3829;50.798;4.358;2022-11-20T03:58:37;5.20;99.90
7576;DHT22;3829;50.798;4.358;2022-11-20T04:01:17;5.20;99.90
7576;DHT22;3829;50.798;4.358;2022-11-20T04:03:44;5.20;99.90
7576;DHT22;3829;50.798;4.358;2022-11-20T04:06:19;5.20;99.90
7576;DHT22;3829;50.798;4.358;2022-11-20T04:08:45;5.20;99.90
7576;DHT22;3829;50.798;4.358;2022-11-20T04:11:15;5.10;99.90
7576;DHT22;3829;50.798;4.358;2022-11-20T04:13:45;5.10;99.90
7576;DHT22;3829;50.798;4.358;2022-11-20T04:16:11;5.20;99.90
7576;DHT22;3829;50.798;4.358;2022-11-20T04:18:36;5.20;99.90
7576;DHT22;3829;50.798;4.358;2022-11-20T04:21:03;5.30;99.90
7576;DHT22;3829;50.798;4.358;2022-11-20T04:23:29;5.30;99.90
7576;DHT22;3829;50.798;4.358;2022-11-20T04:26:01;5.40;99.90
7576;DHT22;3829;50.798;4.358;2022-11-20T04:28:27;5.30;99.90
7576;DHT22;3829;50.798;4.358;2022-11-20T04:30:53;5.20;99.90
7576;DHT22;3829;50.798;4.358;2022-11-20T04:33:18;5.30;99.90
7576;DHT22;3829;50.798;4.358;2022-11-20T04:35:46;5.30;99.90
7576;DHT22;3829;50.798;4.358;2022-11-20T04:38:12;5.30;99.90
7576;DHT22;3829;50.798;4.358;2022-11-20T04:40:38;5.40;99.90
7576;DHT22;3829;50.798;4.358;2022-11-20T04:43:03;5.30;99.90
7576;DHT22;3829;50.798;4.358;2022-11-20T04:45:29;5.40;99.90
7576;DHT22;3829;50.798;4.358;2022-11-20T04:47:54;5.20;99.90
7576;DHT22;3829;50.798;4.358;2022-11-20T04:50:20;5.30;99.90
7576;DHT22;3829;50.798;4.358;2022-11-20T04:52:45;5.30;99.90
7576;DHT22;3829;50.798;4.358;2022-11-20T04:55:11;5.30;99.90
7576;DHT22;3829;50.798;4.358;2022-11-20T04:57:37;5.30;99.90
7576;DHT22;3829;50.798;4.358;2022-11-20T05:00:03;5.40;99.90
7576;DHT22;3829;50.798;4.358;2022-11-20T05:02:31;5.50;99.90
7576;DHT22;3829;50.798;4.358;2022-11-20T05:04:57;5.50;99.90
7576;DHT22;3829;50.798;4.358;2022-11-20T05:07:22;5.60;99.90
7576;DHT22;3829;50.798;4.358;2022-11-20T05:09:48;5.70;99.90
7576;DHT22;3829;50.798;4.358;2022-11-20T05:12:13;5.70;99.90
7576;DHT22;3829;50.798;4.358;2022-11-20T05:14:39;5.70;99.90
7576;DHT22;3829;50.798;4.358;2022-11-20T05:17:04;5.70;99.90
7576;DHT22;3829;50.798;4.358;2022-11-20T05:19:30;5.60;99.90
7576;DHT22;3829;50.798;4.358;2022-11-20T05:21:56;5.60;99.90
7576;DHT22;3829;50.798;4.358;2022-11-20T05:24:21;5.60;99.90
7576;DHT22;3829;50.798;4.358;2022-11-20T05:26:47;5.80;99.90
7576;DHT22;3829;50.798;4.358;2022-11-20T05:29:13;5.70;99.90
7576;DHT22;3829;50.798;4.358;2022-11-20T05:31:39;5.80;99.90
7576;DHT22;3829;50.798;4.358;2022-11-20T05:34:06;5.80;99.90
7576;DHT22;3829;50.798;4.358;2022-11-20T05:36:33;5.80;99.90
7576;DHT22;3829;50.798;4.358;2022-11-20T05:38:59;5.90;99.90
7576;DHT22;3829;50.798;4.358;2022-11-20T05:41:24;5.80;99.90
7576;DHT22;3829;50.798;4.358;2022-11-20T05:43:50;5.90;99.90
7576;DHT22;3829;50.798;4.358;2022-11-20T05:46:19;5.90;99.90
7576;DHT22;3829;50.798;4.358;2022-11-20T05:48:46;5.90;99.90
7576;DHT22;3829;50.798;4.358;2022-11-20T05:51:16;5.80;99.90
7576;DHT22;3829;50.798;4.358;2022-11-20T05:53:42;5.90;99.90
7576;DHT22;3829;50.798;4.358;2022-11-20T05:56:13;5.80;99.90
7576;DHT22;3829;50.798;4.358;2022-11-20T05:58:40;5.80;99.90
7576;DHT22;3829;50.798;4.358;2022-11-20T06:01:11;5.80;99.90
7576;DHT22;3829;50.798;4.358;2022-11-20T06:03:38;5.90;99.90
7576;DHT22;3829;50.798;4.358;2022-11-20T06:06:04;5.80;99.90
7576;DHT22;3829;50.798;4.358;2022-11-20T06:08:31;5.70;99.90
7576;DHT22;3829;50.798;4.358;2022-11-20T06:10:57;5.60;99.90
7576;DHT22;3829;50.798;4.358;2022-11-20T06:13:23;5.70;99.90
7576;DHT22;3829;50.798;4.358;2022-11-20T06:15:52;5.70;99.90
7576;DHT22;3829;50.798;4.358;2022-11-20T06:18:19;5.60;99.90
7576;DHT22;3829;50.798;4.358;2022-11-20T06:20:46;5.60;99.90
7576;DHT22;3829;50.798;4.358;2022-11-20T06:23:12;5.70;99.90
7576;DHT22;3829;50.798;4.358;2022-11-20T06:25:39;5.80;99.90
7576;DHT22;3829;50.798;4.358;2022-11-20T06:28:06;5.80;99.90
7576;DHT22;3829;50.798;4.358;2022-11-20T06:30:31;5.60;99.90
7576;DHT22;3829;50.798;4.358;2022-11-20T06:32:57;5.60;99.90
7576;DHT22;3829;50.798;4.358;2022-11-20T06:35:22;5.70;99.90
7576;DHT22;3829;50.798;4.358;2022-11-20T06:37:48;5.90;99.90
7576;DHT22;3829;50.798;4.358;2022-11-20T06:40:13;6.00;99.90
7576;DHT22;3829;50.798;4.358;2022-11-20T06:42:39;6.10;99.90
7576;DHT22;3829;50.798;4.358;2022-11-20T06:45:05;6.00;99.90
7576;DHT22;3829;50.798;4.358;2022-11-20T06:47:31;6.00;99.90
7576;DHT22;3829;50.798;4.358;2022-11-20T06:49:56;6.00;99.90
7576;DHT22;3829;50.798;4.358;2022-11-20T06:52:22;6.10;99.90
7576;DHT22;3829;50.798;4.358;2022-11-20T06:54:47;6.00;99.90
7576;DHT22;3829;50.798;4.358;2022-11-20T06:57:13;6.00;99.90
7576;DHT22;3829;50.798;4.358;2022-11-20T06:59:38;6.10;99.90
7576;DHT22;3829;50.798;4.358;2022-11-20T07:02:04;6.10;99.90
7576;DHT22;3829;50.798;4.358;2022-11-20T07:04:30;6.20;99.90
7576;DHT22;3829;50.798;4.358;2022-11-20T07:06:55;6.30;99.90
7576;DHT22;3829;50.798;4.358;2022-11-20T07:09:21;6.20;99.90
7576;DHT22;3829;50.798;4.358;2022-11-20T07:11:46;6.30;99.90
7576;DHT22;3829;50.798;4.358;2022-11-20T07:14:12;6.10;99.90
7576;DHT22;3829;50.798;4.358;2022-11-20T07:16:37;6.20;99.90
7576;DHT22;3829;50.798;4.358;2022-11-20T07:19:03;6.30;99.90
7576;DHT22;3829;50.798;4.358;2022-11-20T07:21:29;6.30;99.90
7576;DHT22;3829;50.798;4.358;2022-11-20T07:23:54;6.40;99.90
7576;DHT22;3829;50.798;4.358;2022-11-20T07:26:20;6.40;99.90
7576;DHT22;3829;50.798;4.358;2022-11-20T07:28:45;6.40;99.90
7576;DHT22;3829;50.798;4.358;2022-11-20T07:31:11;6.40;99.90
7576;DHT22;3829;50.798;4.358;2022-11-20T07:33:38;6.40;99.90
7576;DHT22;3829;50.798;4.358;2022-11-20T07:36:04;6.30;99.90
7576;DHT22;3829;50.798;4.358;2022-11-20T07:38:30;6.50;99.90
7576;DHT22;3829;50.798;4.358;2022-11-20T07:40:56;6.40;99.90
7576;DHT22;3829;50.798;4.358;2022-11-20T07:43:23;6.50;99.90
7576;DHT22;3829;50.798;4.358;2022-11-20T07:45:49;6.40;99.90
7576;DHT22;3829;50.798;4.358;2022-11-20T07:48:15;6.40;99.90
7576;DHT22;3829;50.798;4.358;2022-11-20T07:50:40;6.40;99.90
7576;DHT22;3829;50.798;4.358;2022-11-20T07:53:06;6.40;99.90
7576;DHT22;3829;50.798;4.358;2022-11-20T07:55:32;6.40;99.90
7576;DHT22;3829;50.798;4.358;2022-11-20T07:57:58;6.40;99.90
7576;DHT22;3829;50.798;4.358;2022-11-20T08:00:25;6.40;99.90
7576;DHT22;3829;50.798;4.358;2022-11-20T08:02:51;6.40;99.90
7576;DHT22;3829;50.798;4.358;2022-11-20T08:05:17;6.30;99.90
7576;DHT22;3829;50.798;4.358;2022-11-20T08:07:43;6.40;99.90
7576;DHT22;3829;50.798;4.358;2022-11-20T08:10:11;6.60;99.90
7576;DHT22;3829;50.798;4.358;2022-11-20T08:12:47;6.80;99.90
7576;DHT22;3829;50.798;4.358;2022-11-20T08:15:31;6.90;99.90
7576;DHT22;3829;50.798;4.358;2022-11-20T08:18:08;7.00;99.90
7576;DHT22;3829;50.798;4.358;2022-11-20T08:20:34;7.00;99.90
7576;DHT22;3829;50.798;4.358;2022-11-20T08:23:05;7.00;99.90
7576;DHT22;3829;50.798;4.358;2022-11-20T08:25:31;7.10;99.90
7576;DHT22;3829;50.798;4.358;2022-11-20T08:27:58;7.30;99.90
7576;DHT22;3829;50.798;4.358;2022-11-20T08:30:24;7.40;99.90
7576;DHT22;3829;50.798;4.358;2022-11-20T08:32:50;7.40;99.90
7576;DHT22;3829;50.798;4.358;2022-11-20T08:35:16;7.50;99.90
7576;DHT22;3829;50.798;4.358;2022-11-20T08:37:41;7.50;99.90
7576;DHT22;3829;50.798;4.358;2022-11-20T08:40:11;7.50;99.90
7576;DHT22;3829;50.798;4.358;2022-11-20T08:42:36;7.50;99.90
7576;DHT22;3829;50.798;4.358;2022-11-20T08:45:02;7.60;99.90
7576;DHT22;3829;50.798;4.358;2022-11-20T08:47:28;7.70;99.90
7576;DHT22;3829;50.798;4.358;2022-11-20T08:49:53;7.70;99.90
7576;DHT22;3829;50.798;4.358;2022-11-20T08:52:19;7.90;99.90
7576;DHT22;3829;50.798;4.358;2022-11-20T08:54:45;7.90;99.90
7576;DHT22;3829;50.798;4.358;2022-11-20T08:57:10;7.90;99.90
7576;DHT22;3829;50.798;4.358;2022-11-20T08:59:36;7.90;99.90
7576;DHT22;3829;50.798;4.358;2022-11-20T09:02:01;7.90;99.90
7576;DHT22;3829;50.798;4.358;2022-11-20T09:04:27;8.00;99.90
7576;DHT22;3829;50.798;4.358;2022-11-20T09:06:52;8.10;99.90
7576;DHT22;3829;50.798;4.358;2022-11-20T09:09:18;8.00;99.90
7576;DHT22;3829;50.798;4.358;2022-11-20T09:11:44;8.10;99.90
7576;DHT22;3829;50.798;4.358;2022-11-20T09:14:09;8.20;99.90
7576;DHT22;3829;50.798;4.358;2022-11-20T09:16:35;8.30;99.90
7576;DHT22;3829;50.798;4.358;2022-11-20T09:19:01;8.30;99.90
7576;DHT22;3829;50.798;4.358;2022-11-20T09:21:26;8.30;99.90
7576;DHT22;3829;50.798;4.358;2022-11-20T09:23:52;8.40;99.90
7576;DHT22;3829;50.798;4.358;2022-11-20T09:26:17;8.40;99.90
7576;DHT22;3829;50.798;4.358;2022-11-20T09:28:43;8.50;99.90
7576;DHT22;3829;50.798;4.358;2022-11-20T09:31:15;8.60;99.90
7576;DHT22;3829;50.798;4.358;2022-11-20T09:33:42;8.60;99.90
7576;DHT22;3829;50.798;4.358;2022-11-20T09:36:08;8.60;99.90
7576;DHT22;3829;50.798;4.358;2022-11-20T09:38:34;8.60;99.90
7576;DHT22;3829;50.798;4.358;2022-11-20T09:41:06;8.70;99.90
7576;DHT22;3829;50.798;4.358;2022-11-20T09:43:53;8.80;99.90
7576;DHT22;3829;50.798;4.358;2022-11-20T09:49:23;9.00;99.90
7576;DHT22;3829;50.798;4.358;2022-11-20T09:52:00;8.90;99.90
7576;DHT22;3829;50.798;4.358;2022-11-20T09:54:39;8.80;99.90
7576;DHT22;3829;50.798;4.358;2022-11-20T09:57:20;9.00;99.90
7576;DHT22;3829;50.798;4.358;2022-11-20T09:59:52;9.20;99.90
7576;DHT22;3829;50.798;4.358;2022-11-20T10:02:35;9.30;99.90
7576;DHT22;3829;50.798;4.358;2022-11-20T10:08:04;9.30;99.90
7576;DHT22;3829;50.798;4.358;2022-11-20T10:10:44;9.50;99.90
7576;DHT22;3829;50.798;4.358;2022-11-20T10:18:44;9.70;99.90
7576;DHT22;3829;50.798;4.358;2022-11-20T10:24:16;9.80;99.90
7576;DHT22;3829;50.798;4.358;2022-11-20T10:27:17;9.70;99.90
7576;DHT22;3829;50.798;4.358;2022-11-20T10:29:49;9.90;99.90
7576;DHT22;3829;50.798;4.358;2022-11-20T10:32:28;9.70;99.90
7576;DHT22;3829;50.798;4.358;2022-11-20T10:34:59;9.80;99.90
7576;DHT22;3829;50.798;4.358;2022-11-20T10:37:27;9.80;99.90
7576;DHT22;3829;50.798;4.358;2022-11-20T10:42:49;9.90;99.90
7576;DHT22;3829;50.798;4.358;2022-11-20T10:48:09;9.80;99.90
7576;DHT22;3829;50.798;4.358;2022-11-20T10:50:39;10.00;99.90
7576;DHT22;3829;50.798;4.358;2022-11-20T10:56:16;10.20;99.90
7576;DHT22;3829;50.798;4.358;2022-11-20T11:01:42;10.10;99.90
7576;DHT22;3829;50.798;4.358;2022-11-20T11:04:32;10.10;99.90
7576;DHT22;3829;50.798;4.358;2022-11-20T11:07:14;9.90;99.90
7576;DHT22;3829;50.798;4.358;2022-11-20T11:09:43;9.80;99.90
7576;DHT22;3829;50.798;4.358;2022-11-20T11:12:10;9.80;99.90
7576;DHT22;3829;50.798;4.358;2022-11-20T11:14:43;9.90;99.90
7576;DHT22;3829;50.798;4.358;2022-11-20T11:19:45;9.90;99.90
7576;DHT22;3829;50.798;4.358;2022-11-20T11:22:17;10.00;99.90
7576;DHT22;3829;50.798;4.358;2022-11-20T11:24:52;10.00;99.90
7576;DHT22;3829;50.798;4.358;2022-11-20T11:27:18;9.80;99.90
7576;DHT22;3829;50.798;4.358;2022-11-20T11:29:44;9.60;99.90
7576;DHT22;3829;50.798;4.358;2022-11-20T11:32:18;9.80;99.90
7576;DHT22;3829;50.798;4.358;2022-11-20T11:34:44;10.00;99.90
7576;DHT22;3829;50.798;4.358;2022-11-20T11:37:20;9.80;99.90
7576;DHT22;3829;50.798;4.358;2022-11-20T11:39:49;9.60;99.90
7576;DHT22;3829;50.798;4.358;2022-11-20T11:42:18;9.50;99.90
7576;DHT22;3829;50.798;4.358;2022-11-20T11:44:46;9.30;99.90
7576;DHT22;3829;50.798;4.358;2022-11-20T11:50:15;9.10;99.90
7576;DHT22;3829;50.798;4.358;2022-11-20T12:00:57;8.70;99.90
7576;DHT22;3829;50.798;4.358;2022-11-20T12:03:35;8.60;99.90
7576;DHT22;3829;50.798;4.358;2022-11-20T12:06:08;8.50;99.90
7576;DHT22;3829;50.798;4.358;2022-11-20T12:11:16;8.50;99.90
7576;DHT22;3829;50.798;4.358;2022-11-20T12:14:20;8.40;99.90
7576;DHT22;3829;50.798;4.358;2022-11-20T12:16:45;8.40;99.90
7576;DHT22;3829;50.798;4.358;2022-11-20T12:19:12;8.40;99.90
7576;DHT22;3829;50.798;4.358;2022-11-20T12:27:38;8.40;99.90
7576;DHT22;3829;50.798;4.358;2022-11-20T12:30:10;8.50;99.90
7576;DHT22;3829;50.798;4.358;2022-11-20T12:40:44;8.40;99.90
7576;DHT22;3829;50.798;4.358;2022-11-20T12:43:24;8.30;99.90
7576;DHT22;3829;50.798;4.358;2022-11-20T12:51:28;8.40;99.90
7576;DHT22;3829;50.798;4.358;2022-11-20T13:02:23;8.50;99.90
7576;DHT22;3829;50.798;4.358;2022-11-20T13:07:26;8.50;99.90
7576;DHT22;3829;50.798;4.358;2022-11-20T13:09:53;8.40;99.90
7576;DHT22;3829;50.798;4.358;2022-11-20T13:17:51;8.30;99.90
7576;DHT22;3829;50.798;4.358;2022-11-20T13:20:19;8.30;99.90
7576;DHT22;3829;50.798;4.358;2022-11-20T13:22:50;8.30;99.90
7576;DHT22;3829;50.798;4.358;2022-11-20T13:25:34;8.50;99.90
7576;DHT22;3829;50.798;4.358;2022-11-20T13:28:05;8.40;99.90
7576;DHT22;3829;50.798;4.358;2022-11-20T13:30:54;8.50;99.90
7576;DHT22;3829;50.798;4.358;2022-11-20T13:33:33;8.40;99.90
7576;DHT22;3829;50.798;4.358;2022-11-20T13:36:06;8.40;99.90
7576;DHT22;3829;50.798;4.358;2022-11-20T13:38:48;8.50;99.90
7576;DHT22;3829;50.798;4.358;2022-11-20T13:41:24;8.40;99.90
7576;DHT22;3829;50.798;4.358;2022-11-20T13:43:58;8.40;99.90
7576;DHT22;3829;50.798;4.358;2022-11-20T13:46:36;8.30;99.90
7576;DHT22;3829;50.798;4.358;2022-11-20T13:49:07;8.30;99.90
7576;DHT22;3829;50.798;4.358;2022-11-20T13:51:40;8.30;99.90
7576;DHT22;3829;50.798;4.358;2022-11-20T13:54:43;8.30;99.90
7576;DHT22;3829;50.798;4.358;2022-11-20T13:57:44;8.30;99.90
7576;DHT22;3829;50.798;4.358;2022-11-20T14:00:18;8.30;99.90
7576;DHT22;3829;50.798;4.358;2022-11-20T14:05:28;8.30;99.90
7576;DHT22;3829;50.798;4.358;2022-11-20T14:07:56;8.40;99.90
7576;DHT22;3829;50.798;4.358;2022-11-20T14:10:27;8.40;99.90
7576;DHT22;3829;50.798;4.358;2022-11-20T14:12:53;8.30;99.90
7576;DHT22;3829;50.798;4.358;2022-11-20T14:15:26;8.30;99.90
7576;DHT22;3829;50.798;4.358;2022-11-20T14:17:52;8.20;99.90
7576;DHT22;3829;50.798;4.358;2022-11-20T14:20:18;8.20;99.90
7576;DHT22;3829;50.798;4.358;2022-11-20T14:22:52;8.20;99.90
7576;DHT22;3829;50.798;4.358;2022-11-20T14:25:21;8.30;99.90
7576;DHT22;3829;50.798;4.358;2022-11-20T14:27:53;8.30;99.90
7576;DHT22;3829;50.798;4.358;2022-11-20T14:30:22;8.40;99.90
7576;DHT22;3829;50.798;4.358;2022-11-20T14:32:48;8.40;99.90
7576;DHT22;3829;50.798;4.358;2022-11-20T14:35:40;8.40;99.90
7576;DHT22;3829;50.798;4.358;2022-11-20T14:38:12;8.40;99.90
7576;DHT22;3829;50.798;4.358;2022-11-20T14:40:38;8.40;99.90
7576;DHT22;3829;50.798;4.358;2022-11-20T14:43:21;8.50;99.90
7576;DHT22;3829;50.798;4.358;2022-11-20T14:46:13;8.50;99.90
7576;DHT22;3829;50.798;4.358;2022-11-20T14:48:54;8.50;99.90
7576;DHT22;3829;50.798;4.358;2022-11-20T14:51:38;8.50;99.90
7576;DHT22;3829;50.798;4.358;2022-11-20T14:54:17;8.50;99.90
7576;DHT22;3829;50.798;4.358;2022-11-20T14:57:00;8.50;99.90
7576;DHT22;3829;50.798;4.358;2022-11-20T14:59:29;8.40;99.90
7576;DHT22;3829;50.798;4.358;2022-11-20T15:02:00;8.40;99.90
7576;DHT22;3829;50.798;4.358;2022-11-20T15:04:26;8.50;99.90
7576;DHT22;3829;50.798;4.358;2022-11-20T15:06:55;8.50;99.90
7576;DHT22;3829;50.798;4.358;2022-11-20T15:09:21;8.50;99.90
7576;DHT22;3829;50.798;4.358;2022-11-20T15:12:16;8.60;99.90
7576;DHT22;3829;50.798;4.358;2022-11-20T15:14:43;8.70;99.90
7576;DHT22;3829;50.798;4.358;2022-11-20T15:17:10;8.70;99.90
7576;DHT22;3829;50.798;4.358;2022-11-20T15:19:36;8.70;99.90
7576;DHT22;3829;50.798;4.358;2022-11-20T15:22:02;8.70;99.90
7576;DHT22;3829;50.798;4.358;2022-11-20T15:24:27;8.80;99.90
7576;DHT22;3829;50.798;4.358;2022-11-20T15:26:53;8.80;99.90
7576;DHT22;3829;50.798;4.358;2022-11-20T15:29:20;8.80;99.90
7576;DHT22;3829;50.798;4.358;2022-11-20T15:31:46;8.80;99.90
7576;DHT22;3829;50.798;4.358;2022-11-20T15:34:16;8.80;99.90
7576;DHT22;3829;50.798;4.358;2022-11-20T15:36:42;8.80;99.90
7576;DHT22;3829;50.798;4.358;2022-11-20T15:39:09;8.90;99.90
7576;DHT22;3829;50.798;4.358;2022-11-20T15:41:35;8.90;99.90
7576;DHT22;3829;50.798;4.358;2022-11-20T15:44:02;8.80;99.90
7576;DHT22;3829;50.798;4.358;2022-11-20T15:46:30;8.80;99.90
7576;DHT22;3829;50.798;4.358;2022-11-20T15:48:59;8.90;99.90
7576;DHT22;3829;50.798;4.358;2022-11-20T15:51:37;8.90;99.90
7576;DHT22;3829;50.798;4.358;2022-11-20T15:54:22;8.90;99.90
7576;DHT22;3829;50.798;4.358;2022-11-20T15:56:49;8.80;99.90
7576;DHT22;3829;50.798;4.358;2022-11-20T15:59:15;8.90;99.90
7576;DHT22;3829;50.798;4.358;2022-11-20T16:01:41;8.90;99.90
7576;DHT22;3829;50.798;4.358;2022-11-20T16:04:11;8.90;99.90
7576;DHT22;3829;50.798;4.358;2022-11-20T16:06:37;8.90;99.90
7576;DHT22;3829;50.798;4.358;2022-11-20T16:09:03;8.90;99.90
7576;DHT22;3829;50.798;4.358;2022-11-20T16:11:29;8.90;99.90
7576;DHT22;3829;50.798;4.358;2022-11-20T16:13:54;9.00;99.90
7576;DHT22;3829;50.798;4.358;2022-11-20T16:16:39;9.00;99.90
7576;DHT22;3829;50.798;4.358;2022-11-20T16:19:08;9.00;99.90
7576;DHT22;3829;50.798;4.358;2022-11-20T16:21:34;9.00;99.90
7576;DHT22;3829;50.798;4.358;2022-11-20T16:24:04;9.10;99.90
7576;DHT22;3829;50.798;4.358;2022-11-20T16:26:31;8.90;99.90
7576;DHT22;3829;50.798;4.358;2022-11-20T16:28:58;8.90;99.90
7576;DHT22;3829;50.798;4.358;2022-11-20T16:31:24;8.90;99.90
7576;DHT22;3829;50.798;4.358;2022-11-20T16:33:55;8.90;99.90
7576;DHT22;3829;50.798;4.358;2022-11-20T16:36:22;8.70;99.90
7576;DHT22;3829;50.798;4.358;2022-11-20T16:38:56;8.70;99.90
7576;DHT22;3829;50.798;4.358;2022-11-20T16:41:22;8.70;99.90
7576;DHT22;3829;50.798;4.358;2022-11-20T16:43:50;8.70;99.90
7576;DHT22;3829;50.798;4.358;2022-11-20T16:46:18;8.70;99.90
7576;DHT22;3829;50.798;4.358;2022-11-20T16:48:45;8.70;99.90
7576;DHT22;3829;50.798;4.358;2022-11-20T16:51:11;8.60;99.90
7576;DHT22;3829;50.798;4.358;2022-11-20T16:53:38;8.50;99.90
7576;DHT22;3829;50.798;4.358;2022-11-20T16:56:11;8.50;99.90
7576;DHT22;3829;50.798;4.358;2022-11-20T16:58:38;8.50;99.90
7576;DHT22;3829;50.798;4.358;2022-11-20T17:01:07;8.70;99.90
7576;DHT22;3829;50.798;4.358;2022-11-20T17:03:39;8.70;99.90
7576;DHT22;3829;50.798;4.358;2022-11-20T17:06:17;8.70;99.90
7576;DHT22;3829;50.798;4.358;2022-11-20T17:08:43;8.70;99.90
7576;DHT22;3829;50.798;4.358;2022-11-20T17:11:11;8.60;99.90
7576;DHT22;3829;50.798;4.358;2022-11-20T17:13:37;8.60;99.90
7576;DHT22;3829;50.798;4.358;2022-11-20T17:16:05;8.60;99.90
7576;DHT22;3829;50.798;4.358;2022-11-20T17:18:31;8.50;99.90
7576;DHT22;3829;50.798;4.358;2022-11-20T17:20:57;8.50;99.90
7576;DHT22;3829;50.798;4.358;2022-11-20T17:23:27;8.50;99.90
7576;DHT22;3829;50.798;4.358;2022-11-20T17:26:03;8.40;99.90
7576;DHT22;3829;50.798;4.358;2022-11-20T17:28:29;8.30;99.90
7576;DHT22;3829;50.798;4.358;2022-11-20T17:31:07;8.30;99.90
7576;DHT22;3829;50.798;4.358;2022-11-20T17:33:37;8.30;99.90
7576;DHT22;3829;50.798;4.358;2022-11-20T17:36:04;8.40;99.90
7576;DHT22;3829;50.798;4.358;2022-11-20T17:38:30;8.40;99.90
7576;DHT22;3829;50.798;4.358;2022-11-20T17:43:32;8.40;99.90
7576;DHT22;3829;50.798;4.358;2022-11-20T17:45:58;8.40;99.90
7576;DHT22;3829;50.798;4.358;2022-11-20T17:48:24;8.40;99.90
7576;DHT22;3829;50.798;4.358;2022-11-20T17:50:50;8.40;99.90
7576;DHT22;3829;50.798;4.358;2022-11-20T17:53:17;8.40;99.90
7576;DHT22;3829;50.798;4.358;2022-11-20T17:55:42;8.40;99.90